• Join FlightAware (Why Join?)
  • Login
  • US Flag 
Trick or treat! (Boo!!) 
01:38AM EDT


 

Airport Tracker/Info


-or-


 

Live Flight TrackerFlight Track Log ✈ SWA1969 ✈ 25-Apr-2013 ✈ KMDW - KPHX

Flight Track Log - Related Links

Times and Time Zones

All times are in EDT time to prevent confusion due to time zone crossing. See the SWA1969 flight status page for this flight to view local times or setup timezone preferences in your user account.

Time Position Orientation Groundspeed Altitude Reporting Facility
EDT Latitude Longitude Course Direction KTS MPH feet Rate Location/Type
01:35PM 41.7500 -87.8167 255° West 204 235 2,900  Level Chicago TRACON
01:36PM 41.7353 -87.8928 255° West 212 244 3,200 540 Climbing Chicago Center
01:37PM 41.7331 -87.9736 268° West 217 250 4,000 1,200 Climbing Chicago Center
01:38PM 41.7294 -88.0567 267° West 221 254 5,700 960 Climbing Chicago Center
01:39PM 41.7350 -88.1675 274° West 253 291 6,000 240 Climbing Chicago Center
01:40PM 41.7689 -88.2506 299° West 257 296 6,200 1,500 Climbing Chicago Center
01:41PM 41.7956 -88.3358 293° West 255 293 9,200 2,160 Climbing Chicago Center
01:43PM 41.7922 -88.5539 269° West 293 337 13,000 1,860 Climbing Chicago Center
01:44PM 41.7656 -88.6753 254° West 337 388 15,000 2,100 Climbing Chicago Center
01:45PM 41.7381 -88.8033 254° West 358 412 17,400 2,100 Climbing Chicago Center
01:46PM 41.7086 -88.9358 253° West 371 427 19,400 1,980 Climbing Chicago Center
01:47PM 41.6789 -89.0700 254° West 380 437 21,600 1,980 Climbing Chicago Center
01:48PM 41.6453 -89.2347 255° West 387 445 23,600 1,740 Climbing Chicago Center
01:49PM 41.6133 -89.3769 253° West 397 457 25,300 1,620 Climbing Chicago Center
01:50PM 41.5794 -89.5211 253° West 406 467 27,000 1,920 Climbing Chicago Center
01:51PM 41.5472 -89.6611 253° West 405 466 29,300 1,980 Climbing Chicago Center
01:52PM 41.5172 -89.7944 253° West 387 445 31,200 1,740 Climbing Chicago Center
01:53PM 41.4828 -89.9472 253° West 367 422 33,000 1,020 Climbing Chicago Center
01:54PM 41.4525 -90.0764 253° West 364 419 33,400 480 Climbing Chicago Center
01:55PM 41.4222 -90.2108 253° West 374 430 34,000 240 Climbing Chicago Center
01:56PM 41.3903 -90.3453 252° West 380 437 34,000  Level Chicago Center
01:57PM 41.3586 -90.4789 253° West 381 438 34,000 480 Level Chicago Center
01:58PM 41.3283 -90.6089 253° West 375 432 35,000 840 Climbing Chicago Center
01:59PM 41.2844 -90.7653 250° West 375 432 35,800 480 Climbing Chicago Center
02:01PM 41.2461 -90.8958 249° West 379 436 36,000 60 Climbing Chicago Center
02:02PM 41.2067 -91.0269 248° West 382 440 36,000  Level Chicago Center
02:03PM 41.1681 -91.1578 249° West 382 440 36,000  Level Chicago Center
02:04PM 41.1289 -91.2858 248° West 377 434 36,000  Level Chicago Center
02:05PM 41.0908 -91.4144 249° West 376 433 36,000  Level Chicago Center
02:06PM 41.0450 -91.5681 248° West 374 430 36,000  Level Chicago Center
02:07PM 41.0103 -91.6800 248° West 367 422 36,000  Level Chicago Center
02:08PM 40.9644 -91.8292 248° West 367 422 36,000  Level Chicago Center
02:09PM 40.9258 -91.9550 248° West 371 427 36,000  Level Chicago Center
02:10PM 40.8872 -92.0794 248° West 371 427 36,000  Level Chicago Center
02:11PM 40.8483 -92.2044 248° West 372 428 36,000  Level Chicago Center
02:12PM 40.8106 -92.3272 248° West 367 422 36,000  Level Chicago Center
02:13PM 40.7653 -92.4742 248° West 365 420 36,000  Level Chicago Center
02:14PM 40.7261 -92.5969 247° West 367 422 36,000  Level Chicago Center
02:15PM 40.6869 -92.7197 247° West 369 425 36,000  Level Chicago Center
02:16PM 40.6497 -92.8411 248° West 365 420 36,000  Level Chicago Center
02:17PM 40.6100 -92.9611 246° West 363 418 36,000  Level Kansas City Center
02:18PM 40.5717 -93.0808 247° West 361 415 36,000  Level Kansas City Center
02:19PM 40.5258 -93.2247 247° West 361 415 36,000  Level Kansas City Center
02:20PM 40.4869 -93.3450 247° West 361 415 36,000  Level Kansas City Center
02:21PM 40.4481 -93.4633 247° West 358 412 36,000  Level Kansas City Center
02:22PM 40.4092 -93.5817 247° West 357 411 36,000  Level Kansas City Center
02:23PM 40.3706 -93.7008 247° West 358 412 36,000  Level Kansas City Center
02:24PM 40.3236 -93.8433 247° West 358 412 36,000  Level Kansas City Center
02:25PM 40.2847 -93.9606 247° West 355 409 36,000  Level Kansas City Center
02:26PM 40.2433 -94.0872 247° West 354 407 36,000  Level Kansas City Center
02:27PM 40.2053 -94.2000 246° West 354 407 36,000  Level Kansas City Center
02:28PM 40.1594 -94.3317 246° West 356 410 36,000  Level Kansas City Center
02:29PM 40.1217 -94.4478 247° West 361 415 36,000  Level Kansas City Center
02:30PM 40.0758 -94.5808 246° West 361 415 36,000  Level Kansas City Center
02:31PM 40.0383 -94.6956 247° West 360 414 36,000  Level Kansas City Center
02:33PM 39.9928 -94.8300 246° West 362 417 36,000  Level Kansas City Center
02:34PM 39.9533 -94.9422 245° Southwest 359 413 36,000  Level Kansas City Center
02:35PM 39.9047 -95.0750 245° Southwest 363 418 36,000  Level Kansas City Center
02:36PM 39.8625 -95.1878 244° Southwest 364 419 36,000  Level Kansas City Center
02:37PM 39.8139 -95.3192 244° Southwest 363 418 36,000  Level Kansas City Center
02:38PM 39.7725 -95.4328 245° Southwest 364 419 36,000  Level Kansas City Center
02:39PM 39.7228 -95.5633 244° Southwest 363 418 36,000  Level Kansas City Center
02:40PM 39.6808 -95.6750 244° Southwest 361 415 36,000  Level Kansas City Center
02:41PM 39.6319 -95.8042 244° Southwest 360 414 36,000  Level Kansas City Center
02:42PM 39.5894 -95.9178 244° Southwest 364 419 36,000  Level Kansas City Center
02:43PM 39.5464 -96.0289 243° Southwest 362 417 36,000  Level Kansas City Center
02:44PM 39.4972 -96.1592 244° Southwest 361 415 36,000  Level Kansas City Center
02:45PM 39.4517 -96.2761 243° Southwest 362 417 36,000  Level Kansas City Center
02:46PM 39.4072 -96.3925 244° Southwest 362 417 36,000  Level Kansas City Center
02:47PM 39.3614 -96.5108 243° Southwest 360 414 36,000  Level Kansas City Center
02:48PM 39.3108 -96.6400 243° Southwest 362 417 36,000  Level Kansas City Center
02:49PM 39.2678 -96.7492 243° Southwest 357 411 36,000  Level Kansas City Center
02:50PM 39.2189 -96.8767 244° Southwest 356 410 36,000  Level Kansas City Center
02:51PM 39.1764 -96.9853 243° Southwest 355 409 36,000  Level Kansas City Center
02:52PM 39.1258 -97.1106 243° Southwest 353 406 36,000  Level Kansas City Center
02:53PM 39.0856 -97.2203 245° Southwest 354 407 36,000  Level Kansas City Center
02:54PM 39.0347 -97.3472 243° Southwest 357 411 36,000  Level Kansas City Center
02:55PM 38.9925 -97.4544 243° Southwest 353 406 36,000  Level Kansas City Center
02:56PM 38.9417 -97.5808 243° Southwest 356 410 36,000  Level Kansas City Center
02:57PM 38.9025 -97.6922 246° West 353 406 36,000  Level Kansas City Center
02:58PM 38.8642 -97.8211 249° West 351 404 36,000  Level Kansas City Center
02:59PM 38.8317 -97.9233 248° West 356 410 36,000  Level Kansas City Center
03:00PM 38.7878 -98.0636 248° West 355 409 36,000  Level Kansas City Center
03:01PM 38.7519 -98.1817 249° West 357 411 36,000  Level Kansas City Center
03:03PM 38.7139 -98.2994 248° West 358 412 36,000  Level Kansas City Center
03:04PM 38.6772 -98.4211 249° West 358 412 36,000  Level Kansas City Center
03:05PM 38.6403 -98.5339 247° West 355 409 36,000  Level Kansas City Center
03:06PM 38.6039 -98.6517 248° West 357 411 36,000  Level Kansas City Center
03:07PM 38.5594 -98.7908 248° West 355 409 36,000  Level Kansas City Center
03:08PM 38.5222 -98.9075 248° West 355 409 36,000  Level Kansas City Center
03:09PM 38.4853 -99.0225 248° West 354 407 36,000  Level Kansas City Center
03:11PM 38.4103 -99.2511 247° West 352 405 36,000  Level Kansas City Center
03:12PM 38.3731 -99.3669 248° West 353 406 36,000  Level Kansas City Center
03:13PM 38.3283 -99.5053 248° West 353 406 36,000  Level Kansas City Center
03:14PM 38.2889 -99.6250 247° West 352 405 36,000  Level Kansas City Center
03:15PM 38.2536 -99.7344 248° West 351 404 36,000  Level Kansas City Center
03:16PM 38.2106 -99.8606 247° West 349 402 36,000  Level Kansas City Center
03:17PM 38.1756 -99.9706 248° West 350 403 36,000  Level Kansas City Center
03:18PM 38.1319 -100.0969 246° West 350 403 36,000  Level Kansas City Center
03:19PM 38.0961 -100.2072 248° West 352 405 36,000  Level Kansas City Center
03:20PM 38.0525 -100.3347 247° West 352 405 36,000  Level Kansas City Center
03:21PM 38.0156 -100.4436 247° West 352 405 36,000  Level Kansas City Center
03:22PM 37.9725 -100.5703 247° West 351 404 36,000  Level Kansas City Center
03:23PM 37.9244 -100.6706 239° Southwest 350 403 36,000  Level Kansas City Center
03:24PM 37.8681 -100.7883 239° Southwest 351 404 36,000  Level Kansas City Center
03:25PM 37.8206 -100.8878 239° Southwest 349 402 36,000  Level Kansas City Center
03:26PM 37.7647 -101.0031 239° Southwest 350 403 36,000  Level Kansas City Center
03:27PM 37.7189 -101.0969 238° Southwest 350 403 36,000  Level Kansas City Center
03:28PM 37.6603 -101.2181 239° Southwest 350 403 36,000  Level Kansas City Center
03:29PM 37.6117 -101.3192 239° Southwest 352 405 36,000  Level Kansas City Center
03:30PM 37.5547 -101.4361 238° Southwest 351 404 36,000  Level Kansas City Center
03:31PM 37.5050 -101.5383 239° Southwest 356 410 36,000  Level Kansas City Center
03:33PM 37.4467 -101.6572 238° Southwest 357 411 36,000  Level Kansas City Center
03:34PM 37.3975 -101.7594 239° Southwest 358 412 36,000  Level Kansas City Center
03:35PM 37.3392 -101.8794 239° Southwest 360 414 36,000  Level Kansas City Center
03:35PM 37.2961 -101.9633 237° Southwest 360 414 36,000  Level Albuquerque Center
03:36PM 37.2464 -102.0656 239° Southwest 358 412 36,000  Level Albuquerque Center
03:37PM 37.1878 -102.1839 238° Southwest 358 412 36,000  Level Albuquerque Center
03:38PM 37.1375 -102.2856 238° Southwest 358 412 36,000  Level Albuquerque Center
03:40PM 37.0789 -102.4036 238° Southwest 358 412 36,000  Level Albuquerque Center
03:41PM 37.0286 -102.5050 238° Southwest 359 413 36,000  Level Albuquerque Center
03:42PM 36.9689 -102.6228 238° Southwest 358 412 36,000  Level Albuquerque Center
03:43PM 36.9164 -102.7228 237° Southwest 360 414 36,000  Level Albuquerque Center
03:44PM 36.8567 -102.8469 239° Southwest 364 419 36,000  Level Albuquerque Center
03:46PM 36.7461 -103.0619 237° Southwest 366 421 36,000  Level Albuquerque Center
03:47PM 36.6914 -103.1708 238° Southwest 367 422 36,000  Level Albuquerque Center
03:48PM 36.6358 -103.2786 237° Southwest 367 422 36,000  Level Albuquerque Center
03:49PM 36.5808 -103.3872 238° Southwest 367 422 36,000  Level Albuquerque Center
03:50PM 36.5247 -103.4953 237° Southwest 369 425 36,000  Level Albuquerque Center
03:51PM 36.4594 -103.6211 237° Southwest 369 425 36,000  Level Albuquerque Center
03:52PM 36.4033 -103.7292 237° Southwest 370 426 36,000  Level Albuquerque Center
03:53PM 36.3467 -103.8369 237° Southwest 371 427 36,000  Level Albuquerque Center
03:54PM 36.2908 -103.9458 238° Southwest 371 427 36,000  Level Albuquerque Center
03:55PM 36.2347 -104.0506 236° Southwest 366 421 36,000  Level Albuquerque Center
03:56PM 36.1797 -104.1569 237° Southwest 364 419 36,000  Level Albuquerque Center
03:57PM 36.1147 -104.2792 237° Southwest 364 419 36,000  Level Albuquerque Center
03:58PM 36.0797 -104.3978 250° West 369 425 36,000  Level Albuquerque Center
03:59PM 36.0542 -104.5183 255° West 365 420 36,000  Level Albuquerque Center
04:00PM 36.0294 -104.6367 256° West 359 413 36,000  Level Albuquerque Center
04:01PM 36.0036 -104.7586 255° West 363 418 36,000  Level Albuquerque Center
04:02PM 35.9778 -104.8808 255° West 365 420 36,000  Level Albuquerque Center
04:03PM 35.9450 -105.0233 254° West 367 422 36,000  Level Albuquerque Center
04:04PM 35.9194 -105.1425 255° West 361 415 36,000  Level Albuquerque Center
04:05PM 35.8925 -105.2631 255° West 361 415 36,000  Level Albuquerque Center
04:06PM 35.8661 -105.3831 255° West 361 415 36,000  Level Albuquerque Center
04:07PM 35.8394 -105.5033 255° West 362 417 36,000  Level Albuquerque Center
04:08PM 35.8156 -105.6169 255° West 363 418 36,000  Level Albuquerque Center
04:10PM 35.7889 -105.7358 255° West 360 414 36,000  Level Albuquerque Center
04:11PM 35.7558 -105.8775 254° West 360 414 36,000  Level Albuquerque Center
04:12PM 35.7294 -105.9961 255° West 360 414 36,000  Level Albuquerque Center
04:13PM 35.7028 -106.1147 255° West 360 414 36,000  Level Albuquerque Center
04:14PM 35.6750 -106.2456 255° West 364 419 36,000  Level Albuquerque Center
04:15PM 35.6483 -106.3606 254° West 364 419 36,000  Level Albuquerque Center
04:16PM 35.6153 -106.4956 253° West 362 417 36,000  Level Albuquerque Center
04:17PM 35.5892 -106.6122 255° West 357 411 36,000  Level Albuquerque Center
04:18PM 35.5628 -106.7292 255° West 357 411 36,000  Level Albuquerque Center
04:19PM 35.5347 -106.8467 254° West 360 414 36,000  Level Albuquerque Center
04:20PM 35.5072 -106.9656 254° West 363 418 36,000  Level Albuquerque Center
04:21PM 35.4722 -107.1086 253° West 367 422 36,000  Level Albuquerque Center
04:22PM 35.4428 -107.2353 254° West 371 427 36,000  Level Albuquerque Center
04:23PM 35.4150 -107.3500 253° West 370 426 36,000  Level Albuquerque Center
04:24PM 35.3831 -107.4808 253° West 362 417 36,000  Level Albuquerque Center
04:25PM 35.3572 -107.5925 254° West 358 412 36,000  Level Albuquerque Center
04:26PM 35.3250 -107.7219 253° West 356 410 36,000  Level Albuquerque Center
04:27PM 35.2992 -107.8342 254° West 356 410 36,000  Level Albuquerque Center
04:28PM 35.2706 -107.9461 253° West 357 411 36,000  Level Albuquerque Center
04:29PM 35.2381 -108.0778 253° West 360 414 36,000  Level Albuquerque Center
04:30PM 35.2108 -108.1897 253° West 360 414 36,000  Level Albuquerque Center
04:31PM 35.1778 -108.3225 253° West 362 417 36,000  Level Albuquerque Center
04:32PM 35.1489 -108.4381 253° West 367 422 36,000  Level Albuquerque Center
04:33PM 35.1153 -108.5714 253° West 368 423 36,000  Level Albuquerque Center
04:34PM 35.0867 -108.6836 253° West 364 419 36,000  Level Albuquerque Center
04:35PM 35.0536 -108.8156 253° West 362 417 36,000  Level Albuquerque Center
04:36PM 35.0253 -108.9294 253° West 365 420 36,000  Level Albuquerque Center
04:37PM 34.9914 -109.0603 252° West 364 419 36,000  Level Albuquerque Center
04:38PM 34.9611 -109.1747 252° West 366 421 36,000  Level Albuquerque Center
04:40PM 34.9219 -109.2825 246° West 364 419 36,000  Level Albuquerque Center
04:41PM 34.8747 -109.4103 246° West 368 423 36,000  Level Albuquerque Center
04:42PM 34.8333 -109.5156 244° Southwest 361 415 36,000  Level Albuquerque Center
04:43PM 34.7858 -109.6447 246° West 369 425 36,000  Level Albuquerque Center
04:44PM 34.7458 -109.7547 246° West 371 427 36,000  Level Albuquerque Center
04:45PM 34.6972 -109.8844 246° West 375 432 36,000  Level Albuquerque Center
04:46PM 34.6561 -109.9950 246° West 375 432 36,000 -180 Level Albuquerque Center
04:47PM 34.6097 -110.1272 247° West 379 436 35,700 -660 Descending Albuquerque Center
04:48PM 34.5717 -110.2378 247° West 372 428 34,700 -1,080 Descending Albuquerque Center
04:49PM 34.5203 -110.3539 242° Southwest 355 409 33,500 -1,560 Descending Albuquerque Center
04:51PM 34.4425 -110.5750 247° West 356 410 30,000 -1,140 Descending Albuquerque Center
04:52PM 34.4014 -110.6836 245° Southwest 355 409 30,000 -720 Level Albuquerque Center
04:53PM 34.3536 -110.7925 242° Southwest 365 420 28,600 -2,100 Descending Albuquerque Center
04:54PM 34.2897 -110.8819 229° Southwest 356 410 25,700 -2,820 Descending Albuquerque Center
04:55PM 34.2128 -110.9792 226° Southwest 342 394 22,800 -2,760 Descending Albuquerque Center
04:56PM 34.1522 -111.0564 227° Southwest 327 376 20,100 -2,400 Descending Albuquerque Center
04:57PM 34.0922 -111.1339 227° Southwest 318 366 17,900 -1,920 Descending Albuquerque Center
04:58PM 34.0339 -111.2089 227° Southwest 311 358 16,200 -1,620 Descending Albuquerque Center
04:59PM 33.9792 -111.2803 227° Southwest 297 342 14,600 -1,560 Descending Albuquerque Center
05:00PM 33.9244 -111.3506 227° Southwest 290 334 13,000 -1,500 Descending Albuquerque Center
05:01PM 33.8561 -111.4283 223° Southwest 279 321 11,600 -1,020 Descending Albuquerque Center
05:02PM 33.7956 -111.4800 215° Southwest 267 307 11,000 -480 Descending Albuquerque Center
05:03PM 33.7375 -111.5281 215° Southwest 253 291 10,700 -780 Descending Albuquerque Center
05:04PM 33.6875 -111.5728 217° Southwest 227 261 9,500 -1,140 Descending Albuquerque Center
05:05PM 33.6306 -111.6036 204° Southwest 224 258 8,400 -1,200 Descending Albuquerque Center
05:06PM 33.5778 -111.6439 212° Southwest 225 259 7,100 -1,020 Descending Albuquerque Center
05:07PM 33.5308 -111.6925 221° Southwest 222 255 6,300 -1,140 Descending Albuquerque Center
05:08PM 33.4914 -111.7636 236° Southwest 215 247 4,800 -1,260 Descending Albuquerque Center
05:10PM 33.4636 -111.8267 242° Southwest 214 246 3,800 -720 Descending Albuquerque Center
05:11PM 33.4436 -111.8844 247° West 189 217 3,400 -780 Descending Albuquerque Center
05:12PM 33.4406 -111.9333 266° West 149 171 2,200 -1,020 Descending Albuquerque Center
05:13PM 33.4403 -111.9881 270° West 146 168 1,300 -900 Descending Albuquerque Center
05:15PM 33.4343 -112.0116 270° West  Level Estimated